Time;durP1;ratioP1;P1;durP2;ratioP2;P2;SDS_P1;SDS_P2;PMS_P1;PMS_P2;Temp;Humidity;BMP_temperature;BMP_pressure;BME280_temperature;BME280_humidity;BME280_pressure;Samples;Min_cycle;Max_cycle;Signal;HPM_P1;HPM_P2
2021/08/23 00:00:22;;;;;;;11.90;6.70;;;15.40;99.90;;;;;;4894804;29;20124;-68
2021/08/23 00:02:50;;;;;;;9.45;5.70;;;15.30;99.90;;;;;;4894491;29;20049;-68
2021/08/23 00:05:17;;;;;;;10.10;6.30;;;15.30;99.90;;;;;;4874419;29;20073;-68
2021/08/23 00:07:45;;;;;;;14.80;10.38;;;15.20;99.90;;;;;;4899807;29;20139;-68
2021/08/23 00:10:12;;;;;;;9.55;7.07;;;15.20;99.90;;;;;;4877336;29;20032;-68
2021/08/23 00:12:40;;;;;;;12.00;7.32;;;15.10;99.90;;;;;;4894665;29;20045;-68
2021/08/23 00:15:09;;;;;;;10.15;7.28;;;15.10;99.90;;;;;;4893134;29;20056;-69
2021/08/23 00:17:36;;;;;;;9.85;6.03;;;15.10;99.90;;;;;;4893059;29;20119;-68
2021/08/23 00:20:04;;;;;;;8.35;6.40;;;15.10;99.90;;;;;;4894069;29;20407;-69
2021/08/23 00:22:35;;;;;;;10.35;6.95;;;15.10;99.90;;;;;;4897665;29;20094;-68
2021/08/23 00:25:03;;;;;;;9.67;6.00;;;15.10;99.90;;;;;;4896771;29;20084;-68
2021/08/23 00:27:30;;;;;;;9.15;6.32;;;15.10;99.90;;;;;;4881261;29;20308;-68
2021/08/23 00:30:09;;;;;;;11.05;6.97;;;15.10;99.90;;;;;;4898031;29;20049;-68
2021/08/23 00:32:37;;;;;;;9.98;6.45;;;15.20;99.90;;;;;;4853135;29;20052;-68
2021/08/23 00:35:05;;;;;;;11.05;6.97;;;15.20;99.90;;;;;;4898120;29;20044;-68
2021/08/23 00:37:33;;;;;;;8.75;6.43;;;15.20;99.90;;;;;;4903724;29;20605;-68
2021/08/23 00:40:01;;;;;;;10.15;6.55;;;15.10;99.90;;;;;;4897727;29;20140;-68
2021/08/23 00:42:28;;;;;;;12.73;6.78;;;15.20;99.90;;;;;;4897589;29;20071;-69
2021/08/23 00:44:56;;;;;;;10.30;5.88;;;15.20;99.90;;;;;;4883382;29;20048;-68
2021/08/23 00:47:23;;;;;;;10.00;6.47;;;15.20;99.90;;;;;;4893735;29;20047;-68
2021/08/23 00:49:50;;;;;;;11.85;6.93;;;15.10;99.90;;;;;;4899218;29;20523;-68
2021/08/23 00:52:18;;;;;;;10.80;6.97;;;15.10;99.90;;;;;;4896443;29;20041;-68
2021/08/23 00:54:46;;;;;;;13.35;6.32;;;15.20;99.90;;;;;;4897373;29;20048;-68
2021/08/23 00:57:13;;;;;;;14.05;8.32;;;15.10;99.90;;;;;;4897455;29;20052;-68
2021/08/23 00:59:42;;;;;;;9.20;6.70;;;15.10;99.90;;;;;;4896122;29;20049;-68
2021/08/23 01:02:31;;;;;;;9.98;6.55;;;15.10;99.90;;;;;;4895593;29;20555;-68
2021/08/23 01:05:14;;;;;;;11.07;6.57;;;15.10;99.90;;;;;;4895524;29;20051;-68
2021/08/23 01:07:51;;;;;;;11.20;7.03;;;15.00;99.90;;;;;;4903887;29;20139;-68
2021/08/23 01:10:30;;;;;;;9.30;5.82;;;15.00;99.90;;;;;;4895301;29;20045;-68
2021/08/23 01:13:04;;;;;;;9.18;6.47;;;15.00;99.90;;;;;;4880681;29;20077;-68
2021/08/23 01:15:38;;;;;;;10.45;6.60;;;15.00;99.90;;;;;;4894077;29;20055;-68
2021/08/23 01:18:05;;;;;;;11.50;6.45;;;15.00;99.90;;;;;;4896341;29;20108;-68
2021/08/23 01:20:36;;;;;;;11.35;6.95;;;15.00;99.90;;;;;;4896372;29;20060;-68
2021/08/23 01:23:05;;;;;;;10.02;5.95;;;15.00;99.90;;;;;;4895606;29;20078;-68
2021/08/23 01:25:36;;;;;;;10.70;6.45;;;14.90;99.90;;;;;;4895798;29;20055;-68
2021/08/23 01:28:21;;;;;;;11.98;7.18;;;14.90;99.90;;;;;;4894917;29;20049;-68
2021/08/23 01:31:10;;;;;;;13.30;6.90;;;14.90;99.90;;;;;;4897344;29;20127;-68
2021/08/23 01:33:37;;;;;;;10.30;6.40;;;14.90;99.90;;;;;;4896031;29;20113;-68
2021/08/23 01:36:05;;;;;;;9.05;6.13;;;14.90;99.90;;;;;;4893088;29;20048;-69
2021/08/23 01:38:32;;;;;;;10.20;6.18;;;14.90;99.90;;;;;;4887042;29;20065;-68
2021/08/23 01:41:07;;;;;;;10.48;6.20;;;14.90;99.90;;;;;;4906096;29;20718;-68
2021/08/23 01:43:35;;;;;;;10.32;6.13;;;15.00;99.90;;;;;;4896653;29;20051;-68
2021/08/23 01:46:03;;;;;;;10.15;6.93;;;15.00;99.90;;;;;;4896931;29;20126;-68
2021/08/23 01:48:30;;;;;;;9.95;6.65;;;15.00;99.90;;;;;;4896091;29;20796;-68
2021/08/23 01:50:58;;;;;;;12.18;6.25;;;15.00;99.90;;;;;;4890399;29;20043;-68
2021/08/23 01:53:25;;;;;;;10.68;6.85;;;15.00;99.90;;;;;;4909879;29;20032;-68
2021/08/23 01:55:53;;;;;;;9.40;6.38;;;15.00;99.90;;;;;;4893912;29;20052;-68
2021/08/23 01:58:20;;;;;;;9.50;6.18;;;15.00;99.90;;;;;;4895694;29;20068;-68
2021/08/23 02:00:48;;;;;;;10.40;6.65;;;15.00;99.90;;;;;;4887071;29;20056;-68
2021/08/23 02:03:15;;;;;;;9.13;6.20;;;15.00;99.90;;;;;;4895958;29;20120;-68
2021/08/23 02:05:43;;;;;;;8.98;6.10;;;15.00;99.90;;;;;;4896240;29;20708;-68
2021/08/23 02:08:10;;;;;;;8.50;6.20;;;15.00;99.90;;;;;;4899056;29;20040;-68
2021/08/23 02:10:38;;;;;;;8.98;6.28;;;15.00;99.90;;;;;;4896519;29;20048;-68
2021/08/23 02:13:06;;;;;;;12.30;6.90;;;15.00;99.90;;;;;;4894331;29;20463;-68
2021/08/23 02:15:34;;;;;;;9.63;6.30;;;15.00;99.90;;;;;;4889256;29;20083;-68
2021/08/23 02:18:02;;;;;;;11.73;7.00;;;15.00;99.90;;;;;;4895628;29;20411;-68
2021/08/23 02:20:29;;;;;;;10.70;7.07;;;15.00;99.90;;;;;;4892822;29;20060;-68
2021/08/23 02:22:56;;;;;;;10.93;7.43;;;14.90;99.90;;;;;;4886841;29;20131;-68
2021/08/23 02:25:23;;;;;;;10.90;7.03;;;15.00;99.90;;;;;;4898000;29;20052;-68
2021/08/23 02:27:52;;;;;;;9.73;7.25;;;14.90;99.90;;;;;;4899159;29;20076;-68
2021/08/23 02:30:21;;;;;;;11.00;7.10;;;15.00;99.90;;;;;;4894383;29;20135;-68
2021/08/23 02:32:49;;;;;;;11.20;6.80;;;15.00;99.90;;;;;;4895966;29;20048;-67
2021/08/23 02:35:17;;;;;;;8.90;5.88;;;14.90;99.90;;;;;;4894689;29;20368;-68
2021/08/23 02:37:44;;;;;;;11.02;6.55;;;14.90;99.90;;;;;;4898306;29;20127;-68
2021/08/23 02:40:13;;;;;;;11.65;7.32;;;14.90;99.90;;;;;;4889140;29;20060;-68
2021/08/23 02:42:41;;;;;;;11.50;7.00;;;14.90;99.90;;;;;;4877867;29;20362;-68
2021/08/23 02:45:09;;;;;;;9.98;6.85;;;14.90;99.90;;;;;;4878136;29;20057;-68
2021/08/23 02:47:36;;;;;;;11.10;7.07;;;14.90;99.90;;;;;;4894890;29;20628;-68
2021/08/23 02:50:05;;;;;;;8.68;7.10;;;15.00;99.90;;;;;;4894221;29;20084;-68
2021/08/23 02:52:33;;;;;;;10.75;6.75;;;14.90;99.90;;;;;;4887672;29;20045;-68
2021/08/23 02:55:02;;;;;;;9.82;7.25;;;14.90;99.90;;;;;;4894611;29;20100;-68
2021/08/23 02:57:29;;;;;;;12.13;7.32;;;14.90;99.90;;;;;;4895849;29;20139;-68
2021/08/23 02:59:56;;;;;;;10.07;7.28;;;14.90;99.90;;;;;;4894080;29;20055;-68
2021/08/23 03:02:24;;;;;;;9.65;7.30;;;14.90;99.90;;;;;;4895559;29;20040;-68
2021/08/23 03:04:51;;;;;;;12.65;7.47;;;14.90;99.90;;;;;;4893272;29;20088;-68
2021/08/23 03:07:18;;;;;;;11.43;7.40;;;15.00;99.90;;;;;;4901037;29;20045;-68
2021/08/23 03:09:45;;;;;;;15.60;7.32;;;14.90;99.90;;;;;;4893697;29;20079;-68
2021/08/23 03:12:13;;;;;;;12.30;7.43;;;15.00;99.90;;;;;;4895737;29;20036;-68
2021/08/23 03:14:40;;;;;;;12.13;7.30;;;15.00;99.90;;;;;;4895087;29;20124;-68
2021/08/23 03:17:08;;;;;;;11.18;7.75;;;15.00;99.90;;;;;;4895057;29;20055;-68
2021/08/23 03:19:36;;;;;;;10.45;7.15;;;15.00;99.90;;;;;;4877244;29;20377;-68
2021/08/23 03:22:04;;;;;;;11.13;7.40;;;15.00;99.90;;;;;;4881594;29;20049;-68
2021/08/23 03:24:31;;;;;;;12.05;7.25;;;14.90;99.90;;;;;;4873959;29;20071;-68
2021/08/23 03:26:59;;;;;;;11.40;7.18;;;15.00;99.90;;;;;;4888889;29;20116;-67
2021/08/23 03:29:26;;;;;;;12.38;7.75;;;14.90;99.90;;;;;;4893367;29;20032;-67
2021/08/23 03:31:53;;;;;;;10.35;7.78;;;15.00;99.90;;;;;;4893102;29;20155;-69
2021/08/23 03:34:21;;;;;;;9.77;7.13;;;14.90;99.90;;;;;;4894076;29;20049;-69
2021/08/23 03:36:48;;;;;;;13.52;8.13;;;14.90;99.90;;;;;;4877038;29;20055;-69
2021/08/23 03:39:20;;;;;;;11.07;7.28;;;14.90;99.90;;;;;;4887120;29;20055;-67
2021/08/23 03:41:48;;;;;;;11.00;7.63;;;14.90;99.90;;;;;;4876627;29;20060;-67
2021/08/23 03:44:15;;;;;;;10.63;8.20;;;14.90;99.90;;;;;;4893613;29;20503;-68
2021/08/23 03:46:43;;;;;;;11.65;7.70;;;14.90;99.90;;;;;;4893664;29;20055;-68
2021/08/23 03:49:13;;;;;;;12.00;8.02;;;14.90;99.90;;;;;;4892520;29;20056;-67
2021/08/23 03:51:41;;;;;;;11.80;8.35;;;14.90;99.90;;;;;;4876479;29;20055;-67
2021/08/23 03:54:08;;;;;;;13.20;8.00;;;14.90;99.90;;;;;;4892773;29;20143;-68
2021/08/23 03:56:36;;;;;;;13.18;8.07;;;14.90;99.90;;;;;;4893376;29;20048;-68
2021/08/23 03:59:03;;;;;;;11.13;7.72;;;14.90;99.90;;;;;;4894654;29;20088;-67
2021/08/23 04:01:31;;;;;;;10.88;7.88;;;14.90;99.90;;;;;;4887976;29;20045;-69
2021/08/23 04:03:58;;;;;;;12.30;8.32;;;14.90;99.90;;;;;;4892094;29;20131;-68
2021/08/23 04:06:26;;;;;;;12.60;7.80;;;14.90;99.90;;;;;;4888796;29;20044;-68
2021/08/23 04:08:53;;;;;;;11.00;8.15;;;14.90;99.90;;;;;;4880269;29;20206;-68
2021/08/23 04:11:20;;;;;;;15.00;9.18;;;14.90;99.90;;;;;;4876934;29;20052;-68
2021/08/23 04:13:48;;;;;;;13.13;7.88;;;14.90;99.90;;;;;;4894229;29;20052;-68
2021/08/23 04:16:18;;;;;;;13.27;7.85;;;14.90;99.90;;;;;;4894094;29;20562;-68
2021/08/23 04:18:47;;;;;;;14.38;9.18;;;14.90;99.90;;;;;;4893689;29;20531;-68
2021/08/23 04:21:15;;;;;;;14.15;8.32;;;15.00;99.90;;;;;;4892888;29;20044;-68
2021/08/23 04:23:42;;;;;;;12.65;9.40;;;14.90;99.90;;;;;;4891490;29;20060;-68
2021/08/23 04:26:09;;;;;;;11.93;8.48;;;14.90;99.90;;;;;;4887116;29;20059;-68
2021/08/23 04:28:37;;;;;;;11.65;8.63;;;14.90;99.90;;;;;;4875210;29;20053;-68
2021/08/23 04:31:04;;;;;;;14.50;9.88;;;14.90;99.90;;;;;;4894278;29;20474;-68
2021/08/23 04:33:32;;;;;;;12.18;9.02;;;14.90;99.90;;;;;;4884211;29;20134;-68
2021/08/23 04:35:59;;;;;;;13.55;8.93;;;14.90;99.90;;;;;;4887124;29;20667;-68
2021/08/23 04:38:26;;;;;;;13.32;9.45;;;14.90;99.90;;;;;;4888135;29;20131;-68
2021/08/23 04:40:53;;;;;;;12.30;8.75;;;14.90;99.90;;;;;;4893954;29;20471;-68
2021/08/23 04:43:21;;;;;;;16.73;9.52;;;14.90;99.90;;;;;;4893358;29;20059;-68
2021/08/23 04:45:48;;;;;;;16.52;9.82;;;14.90;99.90;;;;;;4894461;29;20139;-68
2021/08/23 04:48:15;;;;;;;12.55;9.07;;;14.90;99.90;;;;;;4892568;29;20191;-68
2021/08/23 04:50:42;;;;;;;13.40;9.30;;;15.00;99.90;;;;;;4890042;29;20128;-68
2021/08/23 04:53:10;;;;;;;13.38;8.80;;;15.00;99.90;;;;;;4893228;29;20055;-69
2021/08/23 04:55:37;;;;;;;14.68;10.15;;;15.00;99.90;;;;;;4892155;29;20398;-68
2021/08/23 04:58:04;;;;;;;14.32;9.80;;;15.00;99.90;;;;;;4891751;29;20051;-68
2021/08/23 05:00:31;;;;;;;13.95;8.95;;;15.10;99.90;;;;;;4889347;29;20427;-68
2021/08/23 05:02:59;;;;;;;15.18;10.13;;;15.20;99.90;;;;;;4886402;29;20041;-69
2021/08/23 05:05:26;;;;;;;13.88;9.68;;;15.20;99.90;;;;;;4892205;29;20045;-69
2021/08/23 05:07:54;;;;;;;13.77;9.55;;;15.30;99.90;;;;;;4897653;29;20526;-69
2021/08/23 05:10:22;;;;;;;11.52;8.95;;;15.30;99.90;;;;;;4897971;29;20048;-68
2021/08/23 05:12:55;;;;;;;13.63;9.85;;;15.30;99.90;;;;;;4895379;29;20051;-68
2021/08/23 05:15:24;;;;;;;13.90;9.35;;;15.30;99.90;;;;;;4887971;29;20040;-69
2021/08/23 05:17:52;;;;;;;13.52;9.98;;;15.30;99.90;;;;;;4891797;29;20053;-69
2021/08/23 05:20:20;;;;;;;14.65;10.20;;;15.30;99.90;;;;;;4896798;29;20500;-69
2021/08/23 05:22:47;;;;;;;14.00;10.15;;;15.40;99.90;;;;;;4895668;29;20080;-68
2021/08/23 05:25:15;;;;;;;15.02;10.35;;;15.40;99.90;;;;;;4883145;29;20055;-69
2021/08/23 05:27:42;;;;;;;16.50;10.15;;;15.40;99.90;;;;;;4895352;29;20044;-68
2021/08/23 05:30:10;;;;;;;13.80;9.80;;;15.50;99.90;;;;;;4895189;29;20052;-69
2021/08/23 05:32:38;;;;;;;12.95;9.32;;;15.50;99.90;;;;;;4895513;29;20127;-69
2021/08/23 05:35:06;;;;;;;13.38;8.75;;;15.60;99.90;;;;;;4896633;29;20100;-69
2021/08/23 05:37:33;;;;;;;14.32;8.90;;;15.50;99.90;;;;;;4895697;29;20066;-69
2021/08/23 05:40:01;;;;;;;16.80;10.85;;;15.50;99.90;;;;;;4895487;29;20052;-69
2021/08/23 05:42:28;;;;;;;15.75;9.32;;;15.50;99.90;;;;;;4895354;29;20139;-69
2021/08/23 05:44:56;;;;;;;16.48;10.13;;;15.50;99.90;;;;;;4880059;29;20760;-68
2021/08/23 05:47:24;;;;;;;12.57;9.00;;;15.40;99.90;;;;;;4889875;29;20059;-69
2021/08/23 05:49:51;;;;;;;12.25;9.38;;;15.60;99.90;;;;;;4878334;29;20049;-69
2021/08/23 05:52:18;;;;;;;13.88;9.77;;;15.50;99.90;;;;;;4897533;29;20045;-68
2021/08/23 05:54:46;;;;;;;17.17;11.27;;;15.50;99.90;;;;;;4882506;29;20041;-68
2021/08/23 05:57:14;;;;;;;17.60;10.30;;;15.40;99.90;;;;;;4881370;29;20060;-68
2021/08/23 05:59:41;;;;;;;15.43;10.32;;;15.30;99.90;;;;;;4886181;29;20049;-68
2021/08/23 06:02:09;;;;;;;15.30;10.63;;;15.30;99.90;;;;;;4867131;29;20041;-68
2021/08/23 06:04:52;;;;;;;13.35;10.05;;;15.30;99.90;;;;;;4899013;29;20058;-68
2021/08/23 06:07:19;;;;;;;14.68;10.88;;;15.40;99.90;;;;;;4891520;29;20048;-68
2021/08/23 06:09:46;;;;;;;16.27;11.65;;;15.40;99.90;;;;;;4897554;29;20076;-68
2021/08/23 06:12:14;;;;;;;13.30;9.90;;;15.40;99.90;;;;;;4888891;29;20128;-68
2021/08/23 06:14:41;;;;;;;13.77;9.77;;;15.50;99.90;;;;;;4891669;29;20105;-69
2021/08/23 06:17:09;;;;;;;13.93;9.57;;;15.60;99.90;;;;;;4894419;29;20099;-68
2021/08/23 06:19:36;;;;;;;14.85;10.52;;;15.60;99.90;;;;;;4878666;29;20041;-68
2021/08/23 06:22:04;;;;;;;12.15;8.70;;;15.70;99.90;;;;;;4890812;29;20041;-67
2021/08/23 06:24:31;;;;;;;13.60;9.40;;;15.70;99.90;;;;;;4890033;29;20048;-67
2021/08/23 06:26:59;;;;;;;17.02;10.07;;;15.90;99.90;;;;;;4879928;29;20101;-68
2021/08/23 06:29:26;;;;;;;15.32;9.73;;;15.90;99.90;;;;;;4895035;29;20044;-67
2021/08/23 06:31:54;;;;;;;12.63;9.77;;;16.10;99.90;;;;;;4895237;29;20041;-67
2021/08/23 06:34:21;;;;;;;14.85;9.55;;;16.20;99.90;;;;;;4895061;29;20041;-68
2021/08/23 06:36:48;;;;;;;13.30;10.02;;;16.20;99.90;;;;;;4895001;29;20447;-68
2021/08/23 06:39:16;;;;;;;14.27;9.52;;;16.20;99.90;;;;;;4889380;29;20522;-69
2021/08/23 06:41:47;;;;;;;14.55;10.77;;;16.10;99.90;;;;;;4889818;29;20544;-68
2021/08/23 06:44:15;;;;;;;16.17;10.65;;;16.10;99.90;;;;;;4895444;29;20060;-68
2021/08/23 06:46:42;;;;;;;15.73;10.27;;;16.10;99.90;;;;;;4893289;29;20427;-68
2021/08/23 06:49:09;;;;;;;13.02;9.40;;;16.10;99.90;;;;;;4878011;29;20148;-68
2021/08/23 06:51:37;;;;;;;14.65;10.98;;;16.10;99.90;;;;;;4893249;29;20043;-68
2021/08/23 06:54:04;;;;;;;13.73;10.30;;;16.10;99.90;;;;;;4893547;29;20041;-68
2021/08/23 06:56:31;;;;;;;12.45;10.00;;;16.20;99.90;;;;;;4893174;29;20543;-68
2021/08/23 06:58:58;;;;;;;17.27;10.07;;;16.20;99.90;;;;;;4887544;29;20055;-68
2021/08/23 07:01:27;;;;;;;14.05;9.88;;;16.30;99.90;;;;;;4881822;29;20047;-68
2021/08/23 07:03:54;;;;;;;17.77;11.13;;;16.40;99.90;;;;;;4893447;29;20064;-67
2021/08/23 07:06:22;;;;;;;14.55;9.88;;;16.60;99.90;;;;;;4880499;29;20189;-68
2021/08/23 07:08:49;;;;;;;17.08;11.35;;;16.70;99.90;;;;;;4890473;29;20045;-67
2021/08/23 07:11:17;;;;;;;15.27;9.73;;;16.70;99.90;;;;;;4884645;29;20032;-67
2021/08/23 07:13:44;;;;;;;15.18;9.40;;;16.70;99.90;;;;;;4892702;29;20416;-68
2021/08/23 07:16:11;;;;;;;14.20;9.15;;;16.90;99.90;;;;;;4893476;29;20041;-67
2021/08/23 07:18:39;;;;;;;13.10;9.45;;;17.00;99.90;;;;;;4894391;29;20055;-67
2021/08/23 07:21:06;;;;;;;12.70;8.55;;;17.10;99.90;;;;;;4871809;29;20060;-68
2021/08/23 07:23:33;;;;;;;10.80;8.57;;;17.00;99.90;;;;;;4889473;29;20055;-67
2021/08/23 07:26:01;;;;;;;13.82;9.05;;;16.90;99.90;;;;;;4893436;29;20096;-67
2021/08/23 07:28:28;;;;;;;12.88;9.90;;;16.90;99.90;;;;;;4894530;29;20517;-67
2021/08/23 07:30:58;;;;;;;14.38;10.02;;;16.90;99.90;;;;;;4893498;29;20040;-68
2021/08/23 07:33:26;;;;;;;13.50;9.98;;;16.70;99.90;;;;;;4891338;29;20044;-68
2021/08/23 07:35:53;;;;;;;12.55;10.07;;;16.60;99.90;;;;;;4885977;29;20055;-68
2021/08/23 07:38:20;;;;;;;13.73;9.80;;;16.50;99.90;;;;;;4877956;29;20056;-67
2021/08/23 07:40:47;;;;;;;12.32;10.07;;;16.50;99.90;;;;;;4890455;29;20056;-68
2021/08/23 07:43:15;;;;;;;13.50;10.23;;;16.40;99.90;;;;;;4889863;29;20049;-68
2021/08/23 07:45:42;;;;;;;13.55;9.85;;;16.40;99.90;;;;;;4887049;29;20049;-68
2021/08/23 07:48:09;;;;;;;14.27;10.82;;;16.50;99.90;;;;;;4877210;29;20064;-67
2021/08/23 07:50:37;;;;;;;14.65;11.27;;;16.60;99.90;;;;;;4888057;29;20568;-68
2021/08/23 07:53:04;;;;;;;17.25;9.98;;;16.60;99.90;;;;;;4883851;29;20492;-67
2021/08/23 07:55:32;;;;;;;14.60;10.32;;;16.70;99.90;;;;;;4883456;29;20440;-67
2021/08/23 07:57:59;;;;;;;13.52;10.02;;;16.70;99.90;;;;;;4887996;29;20166;-67
2021/08/23 08:00:32;;;;;;;13.45;10.18;;;16.70;99.90;;;;;;4891705;29;20049;-68
2021/08/23 08:02:59;;;;;;;12.55;9.57;;;16.70;99.90;;;;;;4873811;29;20049;-68
2021/08/23 08:05:26;;;;;;;12.60;9.82;;;16.80;99.90;;;;;;4891763;29;20062;-67
2021/08/23 08:07:54;;;;;;;13.05;9.32;;;16.90;99.90;;;;;;4900240;29;20052;-68
2021/08/23 08:10:22;;;;;;;15.10;9.60;;;17.00;99.90;;;;;;4875426;29;20056;-68
2021/08/23 08:12:50;;;;;;;14.07;9.77;;;17.00;99.90;;;;;;4888969;29;20444;-68
2021/08/23 08:15:17;;;;;;;13.70;11.05;;;17.00;99.90;;;;;;4889324;29;20048;-68
2021/08/23 08:17:44;;;;;;;14.18;9.95;;;17.00;99.90;;;;;;4891944;29;20049;-68
2021/08/23 08:20:12;;;;;;;16.85;10.05;;;17.00;99.90;;;;;;4889439;29;20043;-68
2021/08/23 08:22:39;;;;;;;12.90;10.20;;;17.10;99.90;;;;;;4890006;29;20065;-68
2021/08/23 08:25:07;;;;;;;14.23;10.07;;;17.30;99.90;;;;;;4888858;29;20045;-68
2021/08/23 08:27:35;;;;;;;17.67;12.20;;;17.40;99.90;;;;;;4893388;29;20045;-68
2021/08/23 08:30:04;;;;;;;13.25;9.75;;;17.60;99.90;;;;;;4891573;29;20047;-68
2021/08/23 08:32:33;;;;;;;12.35;10.05;;;17.70;99.90;;;;;;4893271;29;20052;-68
2021/08/23 08:35:01;;;;;;;12.68;9.02;;;17.70;99.90;;;;;;4891882;29;20048;-68
2021/08/23 08:37:28;;;;;;;12.02;9.65;;;17.70;99.90;;;;;;4890911;29;20036;-68
2021/08/23 08:39:56;;;;;;;14.00;9.35;;;17.70;99.90;;;;;;4895678;29;20546;-68
2021/08/23 08:42:23;;;;;;;15.45;10.75;;;17.70;99.90;;;;;;4893919;29;20499;-67
2021/08/23 08:44:51;;;;;;;15.57;11.77;;;17.70;99.90;;;;;;4895934;29;20091;-68
2021/08/23 08:47:19;;;;;;;16.25;11.55;;;17.80;99.90;;;;;;4897129;29;20056;-67
2021/08/23 08:49:47;;;;;;;20.13;12.10;;;17.90;99.90;;;;;;4896518;29;20052;-68
2021/08/23 08:52:14;;;;;;;15.93;11.52;;;18.00;99.90;;;;;;4894377;29;20048;-68
2021/08/23 08:54:44;;;;;;;15.15;10.85;;;18.10;99.90;;;;;;4895842;29;20090;-68
2021/08/23 08:57:11;;;;;;;16.25;13.02;;;18.30;99.90;;;;;;4894673;29;20445;-67
2021/08/23 08:59:39;;;;;;;16.25;12.35;;;18.20;99.90;;;;;;4894651;29;20055;-68
2021/08/23 09:02:07;;;;;;;14.25;11.77;;;18.20;99.90;;;;;;4889812;29;20146;-67
2021/08/23 09:04:36;;;;;;;15.80;11.50;;;18.10;99.90;;;;;;4878927;29;20060;-68
2021/08/23 09:07:09;;;;;;;19.15;13.25;;;18.10;99.90;;;;;;4872442;29;20168;-68
2021/08/23 09:09:37;;;;;;;16.40;12.57;;;18.00;99.90;;;;;;4879955;29;20123;-68
2021/08/23 09:12:10;;;;;;;15.52;11.30;;;18.00;99.90;;;;;;4895644;29;20037;-69
2021/08/23 09:14:54;;;;;;;16.27;11.80;;;18.20;99.90;;;;;;4885035;29;20529;-68
2021/08/23 09:17:24;;;;;;;16.40;12.27;;;18.40;99.90;;;;;;4896299;29;20468;-68
2021/08/23 09:19:59;;;;;;;13.85;11.55;;;18.70;99.90;;;;;;4904470;29;20044;-68
2021/08/23 09:22:26;;;;;;;13.77;10.63;;;18.90;99.90;;;;;;4895082;29;20076;-68
2021/08/23 09:24:54;;;;;;;19.02;12.02;;;19.30;99.90;;;;;;4894980;29;20139;-68
2021/08/23 09:27:23;;;;;;;14.63;11.10;;;19.50;99.90;;;;;;4894188;29;20100;-68
2021/08/23 09:30:01;;;;;;;15.45;11.38;;;19.50;99.90;;;;;;4895616;29;20079;-68
2021/08/23 09:32:31;;;;;;;14.18;11.18;;;19.50;99.90;;;;;;4894648;29;20092;-68
2021/08/23 09:34:59;;;;;;;15.70;11.10;;;19.40;99.90;;;;;;4891008;29;20059;-67
2021/08/23 09:37:29;;;;;;;14.43;10.55;;;19.10;99.90;;;;;;4891816;29;20558;-68
2021/08/23 09:40:17;;;;;;;12.82;9.48;;;18.90;99.90;;;;;;4895227;29;20048;-68
2021/08/23 09:42:44;;;;;;;13.25;10.18;;;18.90;99.90;;;;;;4894542;29;20052;-68
2021/08/23 09:45:18;;;;;;;15.20;10.48;;;18.90;99.90;;;;;;4896017;29;20052;-68
2021/08/23 09:47:46;;;;;;;13.45;9.70;;;18.70;99.90;;;;;;4894154;29;20048;-68
2021/08/23 09:50:17;;;;;;;13.32;9.23;;;18.50;99.90;;;;;;4898777;29;20550;-68
2021/08/23 09:52:45;;;;;;;14.23;10.82;;;18.50;99.90;;;;;;4890090;29;20055;-68
2021/08/23 09:55:13;;;;;;;20.65;14.57;;;18.40;99.90;;;;;;4890763;29;20468;-68
2021/08/23 09:57:43;;;;;;;14.02;10.50;;;18.40;99.90;;;;;;4894717;29;20157;-67
2021/08/23 10:00:12;;;;;;;15.75;12.25;;;18.50;99.90;;;;;;4895706;29;20072;-68
2021/08/23 10:02:47;;;;;;;14.40;11.63;;;18.50;99.90;;;;;;4894711;29;20119;-68
2021/08/23 10:05:19;;;;;;;13.75;10.00;;;18.40;99.90;;;;;;4874507;29;20126;-68
2021/08/23 10:07:48;;;;;;;12.43;9.65;;;18.40;99.90;;;;;;4899704;29;20295;-68
2021/08/23 10:10:18;;;;;;;13.40;9.98;;;18.50;99.90;;;;;;4894895;29;20053;-68
2021/08/23 10:12:46;;;;;;;16.00;10.75;;;18.70;99.90;;;;;;4884988;29;20415;-67
2021/08/23 10:15:14;;;;;;;14.93;10.57;;;18.80;99.90;;;;;;4884099;29;20407;-68
2021/08/23 10:17:41;;;;;;;14.23;10.65;;;18.90;99.90;;;;;;4890072;29;20101;-68
2021/08/23 10:20:11;;;;;;;10.73;9.23;;;19.00;99.90;;;;;;4894682;29;20048;-68
2021/08/23 10:22:40;;;;;;;14.02;10.45;;;19.20;99.90;;;;;;4893108;29;20132;-68
2021/08/23 10:25:09;;;;;;;15.77;9.63;;;19.30;99.90;;;;;;4883367;29;20123;-67
2021/08/23 10:27:41;;;;;;;12.30;9.75;;;19.40;99.90;;;;;;4894170;29;20135;-67
2021/08/23 10:30:20;;;;;;;10.82;8.85;;;19.60;99.90;;;;;;4895156;29;20083;-69
2021/08/23 10:32:47;;;;;;;12.00;9.23;;;19.60;99.90;;;;;;4874580;29;20533;-70
2021/08/23 10:35:23;;;;;;;12.10;8.30;;;19.90;99.90;;;;;;4889514;29;20131;-69
2021/08/23 10:37:52;;;;;;;11.20;8.43;;;20.10;99.90;;;;;;4878189;29;20051;-69
2021/08/23 10:40:38;;;;;;;9.43;7.97;;;20.10;99.90;;;;;;4886649;29;20040;-69
2021/08/23 10:43:13;;;;;;;10.73;7.97;;;20.10;99.90;;;;;;4894762;29;20491;-69
2021/08/23 10:45:41;;;;;;;9.65;7.50;;;20.10;99.90;;;;;;4892933;29;20415;-69
2021/08/23 10:48:17;;;;;;;11.65;6.82;;;20.30;99.90;;;;;;4895522;29;20056;-69
2021/08/23 10:51:00;;;;;;;9.98;7.30;;;20.40;99.90;;;;;;4894516;29;20049;-69
2021/08/23 10:53:38;;;;;;;8.90;6.80;;;20.50;99.90;;;;;;4892212;29;20048;-69
2021/08/23 10:56:19;;;;;;;12.02;7.13;;;20.50;99.90;;;;;;4888306;29;20059;-69
2021/08/23 10:58:48;;;;;;;8.50;6.83;;;20.70;99.90;;;;;;4877077;29;20060;-70
2021/08/23 11:01:24;;;;;;;8.65;6.47;;;20.90;99.90;;;;;;4878392;29;20058;-70
2021/08/23 11:04:06;;;;;;;7.80;6.05;;;21.40;99.90;;;;;;4909160;29;20054;-69
2021/08/23 11:06:47;;;;;;;8.63;6.80;;;21.80;99.90;;;;;;4890983;29;20052;-70
2021/08/23 11:09:15;;;;;;;11.18;7.55;;;21.90;99.90;;;;;;4893510;29;20040;-70
2021/08/23 11:11:42;;;;;;;10.35;8.27;;;22.00;99.90;;;;;;4894207;29;20060;-69
2021/08/23 11:14:18;;;;;;;9.77;7.28;;;21.90;99.90;;;;;;4892291;29;20503;-70
2021/08/23 11:16:53;;;;;;;9.23;7.50;;;22.00;99.90;;;;;;4893966;29;20053;-70
2021/08/23 11:19:22;;;;;;;10.43;7.22;;;22.10;99.90;;;;;;4891234;29;20571;-70
2021/08/23 11:21:57;;;;;;;10.68;7.18;;;22.00;99.90;;;;;;4885063;29;20476;-70
2021/08/23 11:24:29;;;;;;;9.43;7.20;;;21.80;99.90;;;;;;4885953;29;20072;-70
2021/08/23 11:27:02;;;;;;;8.20;6.55;;;21.70;99.90;;;;;;4890688;29;20096;-69
2021/08/23 11:29:31;;;;;;;9.93;6.85;;;21.60;99.90;;;;;;4889544;29;20072;-70
2021/08/23 11:32:08;;;;;;;9.88;6.70;;;21.30;99.90;;;;;;4877790;29;20055;-70
2021/08/23 11:34:36;;;;;;;10.60;6.90;;;21.30;99.90;;;;;;4884194;29;20053;-69
2021/08/23 11:37:07;;;;;;;12.00;6.63;;;21.50;99.90;;;;;;4894520;29;20097;-69
2021/08/23 11:39:35;;;;;;;10.20;7.30;;;21.40;99.90;;;;;;4881721;29;20041;-70
2021/08/23 11:42:05;;;;;;;8.60;7.28;;;21.20;99.90;;;;;;4895992;29;20048;-69
2021/08/23 11:44:39;;;;;;;7.50;6.40;;;21.00;99.90;;;;;;4908472;29;20500;-69
2021/08/23 11:47:07;;;;;;;7.90;6.57;;;20.90;99.90;;;;;;4881432;29;20412;-70
2021/08/23 11:49:37;;;;;;;10.02;6.10;;;20.80;99.90;;;;;;4891677;29;20100;-70
2021/08/23 11:52:16;;;;;;;7.78;6.32;;;20.80;99.90;;;;;;4900206;29;20069;-70
2021/08/23 11:54:49;;;;;;;11.10;6.78;;;20.90;99.90;;;;;;4891911;29;20132;-69
2021/08/23 11:57:22;;;;;;;7.30;6.20;;;21.00;99.90;;;;;;4892659;29;20052;-70
2021/08/23 11:59:56;;;;;;;9.30;6.40;;;20.70;99.90;;;;;;4892393;29;20045;-70
2021/08/23 12:02:32;;;;;;;8.32;6.65;;;20.60;99.90;;;;;;4894032;29;20148;-69
2021/08/23 12:05:10;;;;;;;9.63;7.15;;;20.40;99.90;;;;;;4892163;29;20180;-70
2021/08/23 12:07:47;;;;;;;9.30;7.32;;;20.20;99.90;;;;;;4896726;29;20507;-69
2021/08/23 12:10:30;;;;;;;9.23;7.82;;;19.80;99.90;;;;;;4889761;29;20044;-70
2021/08/23 12:13:17;;;;;;;9.65;6.93;;;19.50;99.90;;;;;;4891728;29;20112;-69
2021/08/23 12:15:49;;;;;;;10.82;7.20;;;19.40;99.90;;;;;;4883077;29;20045;-70
2021/08/23 12:18:18;;;;;;;10.25;7.40;;;19.30;99.90;;;;;;4879664;29;20045;-70
2021/08/23 12:21:07;;;;;;;13.18;8.57;;;19.40;99.90;;;;;;4896013;29;20054;-70
2021/08/23 12:23:44;;;;;;;10.32;8.35;;;19.30;99.90;;;;;;4897640;29;20052;-70
2021/08/23 12:26:13;;;;;;;13.25;9.30;;;19.30;99.90;;;;;;4897827;29;20136;-70
2021/08/23 12:28:52;;;;;;;10.50;8.55;;;19.00;99.90;;;;;;4894918;29;20053;-70
2021/08/23 12:31:19;;;;;;;11.18;9.23;;;18.90;99.90;;;;;;4896081;29;20049;-69
2021/08/23 12:33:47;;;;;;;11.38;8.73;;;18.90;99.90;;;;;;4896179;29;20059;-69
2021/08/23 12:36:14;;;;;;;15.07;9.82;;;18.90;99.90;;;;;;4896160;29;20061;-70
2021/08/23 12:38:43;;;;;;;11.10;8.35;;;18.90;99.90;;;;;;4895648;29;20504;-68
2021/08/23 12:41:12;;;;;;;11.18;9.18;;;18.90;99.90;;;;;;4896566;29;20079;-68
2021/08/23 12:43:41;;;;;;;12.60;8.45;;;19.10;99.90;;;;;;4878837;29;20457;-68
2021/08/23 12:46:09;;;;;;;15.48;10.15;;;19.20;99.90;;;;;;4896271;29;20053;-68